sensor_id;sensor_type;location;lat;lon;timestamp;P1;durP1;ratioP1;P2;durP2;ratioP2
38935;SDS011;25541;47.458;9.644;2022-11-23T03:48:05;2.83;;;0.20;;
38935;SDS011;25541;47.458;9.644;2022-11-23T03:50:31;1.33;;;0.20;;
38935;SDS011;25541;47.458;9.644;2022-11-23T03:52:57;1.50;;;0.13;;
38935;SDS011;25541;47.458;9.644;2022-11-23T03:55:23;1.58;;;0.10;;
38935;SDS011;25541;47.458;9.644;2022-11-23T03:57:50;2.50;;;0.10;;
38935;SDS011;25541;47.458;9.644;2022-11-23T04:00:17;1.30;;;0.10;;
38935;SDS011;25541;47.458;9.644;2022-11-23T04:02:43;1.20;;;0.10;;
38935;SDS011;25541;47.458;9.644;2022-11-23T04:05:09;1.42;;;0.10;;
38935;SDS011;25541;47.458;9.644;2022-11-23T04:07:35;1.38;;;0.10;;
38935;SDS011;25541;47.458;9.644;2022-11-23T04:10:01;1.45;;;0.10;;
38935;SDS011;25541;47.458;9.644;2022-11-23T04:12:27;1.85;;;0.10;;
38935;SDS011;25541;47.458;9.644;2022-11-23T04:14:54;2.53;;;0.10;;
38935;SDS011;25541;47.458;9.644;2022-11-23T04:17:20;1.67;;;0.10;;
38935;SDS011;25541;47.458;9.644;2022-11-23T04:19:45;2.10;;;0.10;;
38935;SDS011;25541;47.458;9.644;2022-11-23T04:22:11;2.15;;;0.10;;
38935;SDS011;25541;47.458;9.644;2022-11-23T04:24:37;2.50;;;0.20;;
38935;SDS011;25541;47.458;9.644;2022-11-23T04:27:02;2.63;;;0.13;;
38935;SDS011;25541;47.458;9.644;2022-11-23T04:29:28;1.70;;;0.10;;
38935;SDS011;25541;47.458;9.644;2022-11-23T04:31:53;1.10;;;0.20;;
38935;SDS011;25541;47.458;9.644;2022-11-23T04:34:19;2.20;;;0.10;;
38935;SDS011;25541;47.458;9.644;2022-11-23T04:36:45;1.27;;;0.20;;
38935;SDS011;25541;47.458;9.644;2022-11-23T04:39:11;2.67;;;0.30;;
38935;SDS011;25541;47.458;9.644;2022-11-23T04:41:37;2.35;;;0.10;;
38935;SDS011;25541;47.458;9.644;2022-11-23T04:44:03;2.92;;;0.20;;
38935;SDS011;25541;47.458;9.644;2022-11-23T04:46:30;2.90;;;0.20;;
38935;SDS011;25541;47.458;9.644;2022-11-23T04:48:55;1.13;;;0.20;;
38935;SDS011;25541;47.458;9.644;2022-11-23T04:51:21;2.35;;;0.30;;
38935;SDS011;25541;47.458;9.644;2022-11-23T04:53:47;2.05;;;0.35;;
38935;SDS011;25541;47.458;9.644;2022-11-23T04:56:13;2.50;;;0.50;;
38935;SDS011;25541;47.458;9.644;2022-11-23T04:58:39;2.67;;;0.45;;
38935;SDS011;25541;47.458;9.644;2022-11-23T05:01:05;5.53;;;0.80;;
38935;SDS011;25541;47.458;9.644;2022-11-23T05:03:31;2.28;;;0.55;;
38935;SDS011;25541;47.458;9.644;2022-11-23T05:05:59;3.28;;;0.80;;
38935;SDS011;25541;47.458;9.644;2022-11-23T05:08:26;6.15;;;0.60;;
38935;SDS011;25541;47.458;9.644;2022-11-23T05:10:51;3.97;;;0.52;;
38935;SDS011;25541;47.458;9.644;2022-11-23T05:13:17;5.63;;;0.60;;
38935;SDS011;25541;47.458;9.644;2022-11-23T05:15:43;3.17;;;0.50;;
38935;SDS011;25541;47.458;9.644;2022-11-23T05:18:09;2.65;;;0.65;;
38935;SDS011;25541;47.458;9.644;2022-11-23T05:20:36;2.58;;;0.40;;
38935;SDS011;25541;47.458;9.644;2022-11-23T05:23:02;2.65;;;0.45;;
38935;SDS011;25541;47.458;9.644;2022-11-23T05:25:28;3.35;;;0.60;;
38935;SDS011;25541;47.458;9.644;2022-11-23T05:27:54;4.18;;;0.70;;
38935;SDS011;25541;47.458;9.644;2022-11-23T05:30:19;3.95;;;0.73;;
38935;SDS011;25541;47.458;9.644;2022-11-23T05:32:45;7.57;;;0.90;;
38935;SDS011;25541;47.458;9.644;2022-11-23T05:35:11;3.85;;;1.35;;
38935;SDS011;25541;47.458;9.644;2022-11-23T05:37:37;6.70;;;1.52;;
38935;SDS011;25541;47.458;9.644;2022-11-23T05:40:03;4.90;;;1.08;;
38935;SDS011;25541;47.458;9.644;2022-11-23T05:42:30;3.60;;;1.30;;
38935;SDS011;25541;47.458;9.644;2022-11-23T05:44:56;7.22;;;1.33;;
38935;SDS011;25541;47.458;9.644;2022-11-23T05:47:21;7.85;;;1.13;;
38935;SDS011;25541;47.458;9.644;2022-11-23T05:49:47;7.95;;;1.48;;
38935;SDS011;25541;47.458;9.644;2022-11-23T05:52:14;4.97;;;1.52;;
38935;SDS011;25541;47.458;9.644;2022-11-23T05:54:40;6.13;;;1.70;;
38935;SDS011;25541;47.458;9.644;2022-11-23T05:57:06;6.75;;;1.70;;
38935;SDS011;25541;47.458;9.644;2022-11-23T05:59:31;5.40;;;1.40;;
38935;SDS011;25541;47.458;9.644;2022-11-23T06:01:57;5.65;;;1.55;;
38935;SDS011;25541;47.458;9.644;2022-11-23T06:04:23;6.82;;;2.42;;
38935;SDS011;25541;47.458;9.644;2022-11-23T06:06:48;6.88;;;2.00;;
38935;SDS011;25541;47.458;9.644;2022-11-23T06:09:14;4.88;;;1.90;;
38935;SDS011;25541;47.458;9.644;2022-11-23T06:11:40;6.88;;;1.95;;
38935;SDS011;25541;47.458;9.644;2022-11-23T06:14:06;6.32;;;2.30;;
38935;SDS011;25541;47.458;9.644;2022-11-23T06:16:32;5.53;;;1.30;;
38935;SDS011;25541;47.458;9.644;2022-11-23T06:18:57;6.55;;;1.50;;
38935;SDS011;25541;47.458;9.644;2022-11-23T06:21:23;4.63;;;1.38;;
38935;SDS011;25541;47.458;9.644;2022-11-23T06:23:49;4.32;;;1.20;;
38935;SDS011;25541;47.458;9.644;2022-11-23T06:26:14;5.10;;;1.40;;
38935;SDS011;25541;47.458;9.644;2022-11-23T06:28:40;4.57;;;1.05;;
38935;SDS011;25541;47.458;9.644;2022-11-23T06:31:06;6.50;;;1.02;;
38935;SDS011;25541;47.458;9.644;2022-11-23T06:33:34;7.45;;;0.75;;
38935;SDS011;25541;47.458;9.644;2022-11-23T06:36:01;5.95;;;0.80;;
38935;SDS011;25541;47.458;9.644;2022-11-23T06:38:27;2.60;;;0.57;;
38935;SDS011;25541;47.458;9.644;2022-11-23T06:40:57;4.22;;;0.80;;
38935;SDS011;25541;47.458;9.644;2022-11-23T06:43:24;2.95;;;0.60;;
38935;SDS011;25541;47.458;9.644;2022-11-23T06:45:49;2.88;;;0.55;;
38935;SDS011;25541;47.458;9.644;2022-11-23T06:48:15;3.05;;;0.60;;
38935;SDS011;25541;47.458;9.644;2022-11-23T06:50:41;6.47;;;0.63;;
38935;SDS011;25541;47.458;9.644;2022-11-23T06:53:07;2.17;;;0.50;;
38935;SDS011;25541;47.458;9.644;2022-11-23T06:55:36;4.15;;;0.52;;
38935;SDS011;25541;47.458;9.644;2022-11-23T06:58:02;3.25;;;0.50;;
38935;SDS011;25541;47.458;9.644;2022-11-23T07:00:27;4.00;;;0.75;;
38935;SDS011;25541;47.458;9.644;2022-11-23T07:02:53;2.83;;;0.50;;
38935;SDS011;25541;47.458;9.644;2022-11-23T07:05:19;5.65;;;0.77;;
38935;SDS011;25541;47.458;9.644;2022-11-23T07:07:46;4.20;;;0.85;;
38935;SDS011;25541;47.458;9.644;2022-11-23T07:10:12;4.78;;;0.55;;
38935;SDS011;25541;47.458;9.644;2022-11-23T07:12:38;4.80;;;0.57;;
38935;SDS011;25541;47.458;9.644;2022-11-23T07:15:04;5.45;;;0.75;;
38935;SDS011;25541;47.458;9.644;2022-11-23T07:17:31;3.58;;;0.50;;
38935;SDS011;25541;47.458;9.644;2022-11-23T07:19:57;3.85;;;0.52;;
38935;SDS011;25541;47.458;9.644;2022-11-23T07:22:22;4.05;;;0.40;;
38935;SDS011;25541;47.458;9.644;2022-11-23T07:24:48;6.03;;;0.40;;
38935;SDS011;25541;47.458;9.644;2022-11-23T07:27:15;3.05;;;0.35;;
38935;SDS011;25541;47.458;9.644;2022-11-23T07:29:41;3.17;;;0.60;;
38935;SDS011;25541;47.458;9.644;2022-11-23T07:32:07;3.28;;;0.75;;
38935;SDS011;25541;47.458;9.644;2022-11-23T07:34:32;3.47;;;0.60;;
38935;SDS011;25541;47.458;9.644;2022-11-23T07:36:58;3.92;;;0.73;;
38935;SDS011;25541;47.458;9.644;2022-11-23T07:39:24;2.90;;;0.63;;
38935;SDS011;25541;47.458;9.644;2022-11-23T07:41:49;3.60;;;0.73;;
38935;SDS011;25541;47.458;9.644;2022-11-23T07:44:15;2.60;;;0.73;;
38935;SDS011;25541;47.458;9.644;2022-11-23T07:46:41;6.28;;;0.73;;
38935;SDS011;25541;47.458;9.644;2022-11-23T07:49:06;3.47;;;0.70;;
38935;SDS011;25541;47.458;9.644;2022-11-23T07:51:32;5.63;;;0.95;;
38935;SDS011;25541;47.458;9.644;2022-11-23T07:53:58;8.18;;;0.65;;
38935;SDS011;25541;47.458;9.644;2022-11-23T07:56:23;4.97;;;0.60;;
38935;SDS011;25541;47.458;9.644;2022-11-23T07:58:49;3.40;;;0.65;;
38935;SDS011;25541;47.458;9.644;2022-11-23T08:01:15;7.72;;;0.70;;
38935;SDS011;25541;47.458;9.644;2022-11-23T08:03:42;4.13;;;0.80;;
38935;SDS011;25541;47.458;9.644;2022-11-23T08:06:09;7.95;;;1.00;;
38935;SDS011;25541;47.458;9.644;2022-11-23T08:08:36;4.68;;;0.77;;
38935;SDS011;25541;47.458;9.644;2022-11-23T08:11:03;3.40;;;0.50;;
38935;SDS011;25541;47.458;9.644;2022-11-23T08:13:29;2.40;;;0.45;;
38935;SDS011;25541;47.458;9.644;2022-11-23T08:15:56;7.55;;;0.60;;
38935;SDS011;25541;47.458;9.644;2022-11-23T08:18:25;4.10;;;0.65;;
38935;SDS011;25541;47.458;9.644;2022-11-23T08:20:51;3.78;;;0.30;;
38935;SDS011;25541;47.458;9.644;2022-11-23T08:23:17;9.57;;;0.60;;
38935;SDS011;25541;47.458;9.644;2022-11-23T08:25:43;3.17;;;0.60;;
38935;SDS011;25541;47.458;9.644;2022-11-23T08:28:09;2.53;;;0.40;;
38935;SDS011;25541;47.458;9.644;2022-11-23T08:30:35;5.07;;;0.47;;
38935;SDS011;25541;47.458;9.644;2022-11-23T08:33:01;3.70;;;0.40;;
38935;SDS011;25541;47.458;9.644;2022-11-23T08:35:37;5.28;;;0.60;;
38935;SDS011;25541;47.458;9.644;2022-11-23T08:38:05;2.72;;;0.50;;
38935;SDS011;25541;47.458;9.644;2022-11-23T08:40:32;2.08;;;0.20;;
38935;SDS011;25541;47.458;9.644;2022-11-23T08:42:58;3.20;;;0.40;;
38935;SDS011;25541;47.458;9.644;2022-11-23T08:45:23;3.15;;;0.30;;
38935;SDS011;25541;47.458;9.644;2022-11-23T08:47:50;2.60;;;0.22;;
38935;SDS011;25541;47.458;9.644;2022-11-23T08:50:17;1.75;;;0.17;;
38935;SDS011;25541;47.458;9.644;2022-11-23T08:52:45;1.65;;;0.20;;
38935;SDS011;25541;47.458;9.644;2022-11-23T08:55:11;2.13;;;0.20;;
38935;SDS011;25541;47.458;9.644;2022-11-23T08:57:36;1.75;;;0.20;;
38935;SDS011;25541;47.458;9.644;2022-11-23T09:00:05;2.80;;;0.20;;
38935;SDS011;25541;47.458;9.644;2022-11-23T09:02:31;3.63;;;0.30;;
38935;SDS011;25541;47.458;9.644;2022-11-23T09:04:57;4.50;;;0.30;;
38935;SDS011;25541;47.458;9.644;2022-11-23T09:07:22;3.97;;;0.50;;
38935;SDS011;25541;47.458;9.644;2022-11-23T09:09:48;3.58;;;0.30;;
38935;SDS011;25541;47.458;9.644;2022-11-23T09:12:14;3.78;;;0.28;;
38935;SDS011;25541;47.458;9.644;2022-11-23T09:14:39;2.00;;;0.25;;
38935;SDS011;25541;47.458;9.644;2022-11-23T09:17:05;2.55;;;0.20;;
38935;SDS011;25541;47.458;9.644;2022-11-23T09:19:31;2.00;;;0.30;;
38935;SDS011;25541;47.458;9.644;2022-11-23T09:21:56;5.03;;;0.50;;
38935;SDS011;25541;47.458;9.644;2022-11-23T09:24:23;2.15;;;0.28;;
38935;SDS011;25541;47.458;9.644;2022-11-23T09:26:49;6.78;;;0.73;;
38935;SDS011;25541;47.458;9.644;2022-11-23T09:29:15;3.22;;;0.43;;
38935;SDS011;25541;47.458;9.644;2022-11-23T09:31:41;3.63;;;0.40;;
38935;SDS011;25541;47.458;9.644;2022-11-23T09:34:06;1.98;;;0.32;;
38935;SDS011;25541;47.458;9.644;2022-11-23T09:36:34;2.10;;;0.60;;
38935;SDS011;25541;47.458;9.644;2022-11-23T09:38:59;3.40;;;0.60;;
38935;SDS011;25541;47.458;9.644;2022-11-23T09:52:27;2.72;;;0.32;;
38935;SDS011;25541;47.458;9.644;2022-11-23T09:54:55;3.80;;;0.30;;
38935;SDS011;25541;47.458;9.644;2022-11-23T09:59:54;1.98;;;0.32;;
38935;SDS011;25541;47.458;9.644;2022-11-23T10:02:28;2.25;;;0.22;;
38935;SDS011;25541;47.458;9.644;2022-11-23T10:04:57;4.38;;;0.32;;
38935;SDS011;25541;47.458;9.644;2022-11-23T10:23:59;2.08;;;0.20;;
38935;SDS011;25541;47.458;9.644;2022-11-23T10:25:59;2.42;;;0.10;;
38935;SDS011;25541;47.458;9.644;2022-11-23T10:28:26;2.15;;;0.22;;
38935;SDS011;25541;47.458;9.644;2022-11-23T10:31:03;4.05;;;0.20;;
38935;SDS011;25541;47.458;9.644;2022-11-23T10:33:44;4.18;;;0.20;;
38935;SDS011;25541;47.458;9.644;2022-11-23T10:36:13;2.83;;;0.20;;
38935;SDS011;25541;47.458;9.644;2022-11-23T10:38:38;2.35;;;0.20;;
38935;SDS011;25541;47.458;9.644;2022-11-23T10:41:09;1.83;;;0.30;;
38935;SDS011;25541;47.458;9.644;2022-11-23T10:57:00;1.15;;;0.10;;
38935;SDS011;25541;47.458;9.644;2022-11-23T11:04:43;1.45;;;0.10;;
38935;SDS011;25541;47.458;9.644;2022-11-23T11:09:49;1.58;;;0.10;;
38935;SDS011;25541;47.458;9.644;2022-11-23T11:12:19;2.38;;;0.10;;
38935;SDS011;25541;47.458;9.644;2022-11-23T11:14:54;2.65;;;0.10;;
38935;SDS011;25541;47.458;9.644;2022-11-23T11:17:29;2.25;;;0.10;;
38935;SDS011;25541;47.458;9.644;2022-11-23T11:19:57;1.88;;;0.25;;
38935;SDS011;25541;47.458;9.644;2022-11-23T11:22:41;1.88;;;0.13;;
38935;SDS011;25541;47.458;9.644;2022-11-23T11:25:20;2.88;;;0.10;;
38935;SDS011;25541;47.458;9.644;2022-11-23T11:27:53;1.88;;;0.10;;
38935;SDS011;25541;47.458;9.644;2022-11-23T11:30:22;3.47;;;0.50;;
38935;SDS011;25541;47.458;9.644;2022-11-23T11:35:36;9.38;;;0.10;;
38935;SDS011;25541;47.458;9.644;2022-11-23T11:40:51;1.60;;;0.10;;
38935;SDS011;25541;47.458;9.644;2022-11-23T11:46:14;4.43;;;0.10;;
38935;SDS011;25541;47.458;9.644;2022-11-23T11:48:50;1.10;;;0.05;;
38935;SDS011;25541;47.458;9.644;2022-11-23T11:51:40;1.83;;;0.10;;
38935;SDS011;25541;47.458;9.644;2022-11-23T11:54:12;0.65;;;0.00;;
38935;SDS011;25541;47.458;9.644;2022-11-23T11:56:49;0.63;;;0.10;;
38935;SDS011;25541;47.458;9.644;2022-11-23T11:59:52;1.75;;;0.20;;
38935;SDS011;25541;47.458;9.644;2022-11-23T12:10:23;1.02;;;0.10;;
38935;SDS011;25541;47.458;9.644;2022-11-23T12:12:52;1.58;;;0.10;;
38935;SDS011;25541;47.458;9.644;2022-11-23T12:15:21;1.08;;;0.10;;
38935;SDS011;25541;47.458;9.644;2022-11-23T12:18:12;3.28;;;0.25;;
38935;SDS011;25541;47.458;9.644;2022-11-23T12:26:15;1.08;;;0.10;;
38935;SDS011;25541;47.458;9.644;2022-11-23T12:31:38;1.27;;;0.10;;
38935;SDS011;25541;47.458;9.644;2022-11-23T12:39:47;2.85;;;0.10;;
38935;SDS011;25541;47.458;9.644;2022-11-23T12:42:46;4.47;;;0.10;;
38935;SDS011;25541;47.458;9.644;2022-11-23T12:59:03;2.30;;;0.08;;
38935;SDS011;25541;47.458;9.644;2022-11-23T13:01:39;1.48;;;0.10;;
38935;SDS011;25541;47.458;9.644;2022-11-23T13:23:46;4.53;;;0.10;;
38935;SDS011;25541;47.458;9.644;2022-11-23T13:28:39;0.68;;;0.03;;
38935;SDS011;25541;47.458;9.644;2022-11-23T13:33:47;1.60;;;0.20;;
38935;SDS011;25541;47.458;9.644;2022-11-23T13:38:56;1.65;;;0.10;;
38935;SDS011;25541;47.458;9.644;2022-11-23T13:44:39;0.90;;;0.00;;
38935;SDS011;25541;47.458;9.644;2022-11-23T13:49:39;0.57;;;0.00;;
38935;SDS011;25541;47.458;9.644;2022-11-23T13:57:28;0.60;;;0.00;;
38935;SDS011;25541;47.458;9.644;2022-11-23T14:06:09;2.45;;;0.00;;
38935;SDS011;25541;47.458;9.644;2022-11-23T14:08:51;2.78;;;0.10;;
38935;SDS011;25541;47.458;9.644;2022-11-23T14:11:49;1.35;;;0.10;;
38935;SDS011;25541;47.458;9.644;2022-11-23T14:14:28;2.42;;;0.10;;
38935;SDS011;25541;47.458;9.644;2022-11-23T14:20:13;0.57;;;0.00;;
38935;SDS011;25541;47.458;9.644;2022-11-23T14:31:42;1.17;;;0.10;;
38935;SDS011;25541;47.458;9.644;2022-11-23T14:37:14;2.45;;;0.10;;
38935;SDS011;25541;47.458;9.644;2022-11-23T14:42:24;4.25;;;0.20;;
38935;SDS011;25541;47.458;9.644;2022-11-23T14:44:52;5.63;;;0.20;;
38935;SDS011;25541;47.458;9.644;2022-11-23T14:47:26;1.90;;;0.10;;
38935;SDS011;25541;47.458;9.644;2022-11-23T14:49:54;0.93;;;0.00;;
38935;SDS011;25541;47.458;9.644;2022-11-23T14:52:21;3.65;;;0.10;;
38935;SDS011;25541;47.458;9.644;2022-11-23T14:54:51;1.00;;;0.10;;
38935;SDS011;25541;47.458;9.644;2022-11-23T14:57:20;2.05;;;0.00;;
38935;SDS011;25541;47.458;9.644;2022-11-23T14:59:57;2.97;;;0.10;;
38935;SDS011;25541;47.458;9.644;2022-11-23T15:02:38;1.00;;;0.10;;
38935;SDS011;25541;47.458;9.644;2022-11-23T15:05:06;5.43;;;0.20;;
38935;SDS011;25541;47.458;9.644;2022-11-23T15:12:54;8.10;;;0.20;;
38935;SDS011;25541;47.458;9.644;2022-11-23T15:15:23;3.70;;;0.10;;
38935;SDS011;25541;47.458;9.644;2022-11-23T15:20:17;3.92;;;0.10;;
38935;SDS011;25541;47.458;9.644;2022-11-23T15:22:43;1.50;;;0.10;;
38935;SDS011;25541;47.458;9.644;2022-11-23T15:25:13;3.33;;;0.10;;
38935;SDS011;25541;47.458;9.644;2022-11-23T15:27:42;0.98;;;0.20;;
38935;SDS011;25541;47.458;9.644;2022-11-23T15:33:07;1.35;;;0.10;;
38935;SDS011;25541;47.458;9.644;2022-11-23T15:35:35;4.28;;;0.13;;
38935;SDS011;25541;47.458;9.644;2022-11-23T15:38:03;4.07;;;0.30;;
38935;SDS011;25541;47.458;9.644;2022-11-23T15:40:36;1.10;;;0.10;;
38935;SDS011;25541;47.458;9.644;2022-11-23T15:43:04;0.73;;;0.10;;
38935;SDS011;25541;47.458;9.644;2022-11-23T15:48:02;2.65;;;0.10;;
38935;SDS011;25541;47.458;9.644;2022-11-23T15:50:29;6.18;;;0.38;;
38935;SDS011;25541;47.458;9.644;2022-11-23T15:52:57;1.42;;;0.10;;
38935;SDS011;25541;47.458;9.644;2022-11-23T15:55:24;2.25;;;0.10;;
38935;SDS011;25541;47.458;9.644;2022-11-23T15:57:53;3.83;;;0.10;;
38935;SDS011;25541;47.458;9.644;2022-11-23T16:00:23;2.58;;;0.20;;
38935;SDS011;25541;47.458;9.644;2022-11-23T16:02:50;1.70;;;0.10;;
38935;SDS011;25541;47.458;9.644;2022-11-23T16:05:20;5.20;;;0.20;;
38935;SDS011;25541;47.458;9.644;2022-11-23T16:07:51;2.75;;;0.17;;
38935;SDS011;25541;47.458;9.644;2022-11-23T16:10:27;0.80;;;0.10;;
38935;SDS011;25541;47.458;9.644;2022-11-23T16:17:54;8.35;;;2.22;;
38935;SDS011;25541;47.458;9.644;2022-11-23T16:20:21;6.30;;;2.25;;
38935;SDS011;25541;47.458;9.644;2022-11-23T16:22:48;4.78;;;1.10;;
38935;SDS011;25541;47.458;9.644;2022-11-23T16:25:33;5.75;;;0.75;;
38935;SDS011;25541;47.458;9.644;2022-11-23T16:28:04;1.90;;;0.30;;
38935;SDS011;25541;47.458;9.644;2022-11-23T16:30:39;2.05;;;0.30;;
38935;SDS011;25541;47.458;9.644;2022-11-23T16:33:12;11.77;;;0.60;;
38935;SDS011;25541;47.458;9.644;2022-11-23T16:35:39;7.80;;;2.45;;
38935;SDS011;25541;47.458;9.644;2022-11-23T16:38:05;9.60;;;2.60;;
38935;SDS011;25541;47.458;9.644;2022-11-23T16:40:31;7.13;;;2.00;;
38935;SDS011;25541;47.458;9.644;2022-11-23T16:42:57;2.00;;;0.50;;
38935;SDS011;25541;47.458;9.644;2022-11-23T16:45:23;2.20;;;0.55;;
38935;SDS011;25541;47.458;9.644;2022-11-23T16:50:17;4.15;;;1.05;;
38935;SDS011;25541;47.458;9.644;2022-11-23T16:52:43;2.60;;;0.30;;
38935;SDS011;25541;47.458;9.644;2022-11-23T16:55:09;4.65;;;0.50;;
38935;SDS011;25541;47.458;9.644;2022-11-23T16:57:35;5.22;;;0.70;;
38935;SDS011;25541;47.458;9.644;2022-11-23T17:00:02;4.53;;;0.40;;
38935;SDS011;25541;47.458;9.644;2022-11-23T17:02:30;2.95;;;0.38;;
38935;SDS011;25541;47.458;9.644;2022-11-23T17:04:56;3.42;;;0.25;;
38935;SDS011;25541;47.458;9.644;2022-11-23T17:07:21;1.55;;;0.15;;
38935;SDS011;25541;47.458;9.644;2022-11-23T17:09:47;3.80;;;0.40;;
38935;SDS011;25541;47.458;9.644;2022-11-23T17:12:14;3.38;;;0.50;;
38935;SDS011;25541;47.458;9.644;2022-11-23T17:14:41;4.60;;;1.10;;
38935;SDS011;25541;47.458;9.644;2022-11-23T17:17:12;6.07;;;1.10;;
38935;SDS011;25541;47.458;9.644;2022-11-23T17:19:43;5.40;;;1.00;;
38935;SDS011;25541;47.458;9.644;2022-11-23T17:22:12;6.28;;;1.20;;
38935;SDS011;25541;47.458;9.644;2022-11-23T17:24:39;7.05;;;1.45;;
38935;SDS011;25541;47.458;9.644;2022-11-23T17:27:05;6.55;;;1.17;;
38935;SDS011;25541;47.458;9.644;2022-11-23T17:29:35;3.33;;;0.95;;
38935;SDS011;25541;47.458;9.644;2022-11-23T17:32:01;4.72;;;1.10;;
38935;SDS011;25541;47.458;9.644;2022-11-23T17:34:28;5.40;;;0.60;;
38935;SDS011;25541;47.458;9.644;2022-11-23T17:36:54;0.80;;;0.10;;
38935;SDS011;25541;47.458;9.644;2022-11-23T17:39:21;1.05;;;0.10;;
38935;SDS011;25541;47.458;9.644;2022-11-23T17:41:49;0.57;;;0.00;;
38935;SDS011;25541;47.458;9.644;2022-11-23T17:44:15;0.57;;;0.00;;
38935;SDS011;25541;47.458;9.644;2022-11-23T17:46:41;1.33;;;0.00;;
38935;SDS011;25541;47.458;9.644;2022-11-23T17:49:10;0.28;;;0.00;;
38935;SDS011;25541;47.458;9.644;2022-11-23T17:51:36;2.00;;;0.10;;
38935;SDS011;25541;47.458;9.644;2022-11-23T17:54:02;1.65;;;0.10;;
38935;SDS011;25541;47.458;9.644;2022-11-23T17:56:28;1.55;;;0.10;;
38935;SDS011;25541;47.458;9.644;2022-11-23T17:58:54;2.13;;;0.20;;
38935;SDS011;25541;47.458;9.644;2022-11-23T18:01:20;1.38;;;0.13;;
38935;SDS011;25541;47.458;9.644;2022-11-23T18:03:47;2.00;;;0.20;;
38935;SDS011;25541;47.458;9.644;2022-11-23T18:06:13;2.10;;;0.20;;
38935;SDS011;25541;47.458;9.644;2022-11-23T18:08:43;1.65;;;0.30;;
38935;SDS011;25541;47.458;9.644;2022-11-23T18:11:10;2.20;;;0.20;;
38935;SDS011;25541;47.458;9.644;2022-11-23T18:13:36;3.25;;;0.10;;
38935;SDS011;25541;47.458;9.644;2022-11-23T18:16:03;2.40;;;0.20;;
38935;SDS011;25541;47.458;9.644;2022-11-23T18:18:29;3.60;;;0.20;;
38935;SDS011;25541;47.458;9.644;2022-11-23T18:20:55;2.03;;;0.20;;
38935;SDS011;25541;47.458;9.644;2022-11-23T18:23:21;3.13;;;0.50;;
38935;SDS011;25541;47.458;9.644;2022-11-23T18:25:50;4.55;;;1.42;;
38935;SDS011;25541;47.458;9.644;2022-11-23T18:28:41;4.20;;;1.02;;
38935;SDS011;25541;47.458;9.644;2022-11-23T18:31:07;2.80;;;0.57;;
38935;SDS011;25541;47.458;9.644;2022-11-23T18:33:33;2.03;;;0.40;;
38935;SDS011;25541;47.458;9.644;2022-11-23T18:35:59;2.03;;;0.40;;
38935;SDS011;25541;47.458;9.644;2022-11-23T18:38:24;3.67;;;0.75;;
38935;SDS011;25541;47.458;9.644;2022-11-23T18:40:50;2.92;;;0.50;;
38935;SDS011;25541;47.458;9.644;2022-11-23T18:43:16;4.82;;;1.17;;
38935;SDS011;25541;47.458;9.644;2022-11-23T18:45:41;5.45;;;0.80;;
38935;SDS011;25541;47.458;9.644;2022-11-23T18:48:08;4.38;;;0.77;;
38935;SDS011;25541;47.458;9.644;2022-11-23T18:50:34;4.22;;;0.63;;
38935;SDS011;25541;47.458;9.644;2022-11-23T18:53:00;3.15;;;0.70;;
38935;SDS011;25541;47.458;9.644;2022-11-23T18:55:26;4.50;;;0.50;;
38935;SDS011;25541;47.458;9.644;2022-11-23T18:57:52;3.13;;;0.40;;
38935;SDS011;25541;47.458;9.644;2022-11-23T19:00:19;2.53;;;0.28;;
38935;SDS011;25541;47.458;9.644;2022-11-23T19:02:58;4.13;;;0.52;;
38935;SDS011;25541;47.458;9.644;2022-11-23T19:05:26;3.95;;;0.43;;
38935;SDS011;25541;47.458;9.644;2022-11-23T19:07:54;1.05;;;0.10;;
38935;SDS011;25541;47.458;9.644;2022-11-23T19:10:28;1.13;;;0.20;;
38935;SDS011;25541;47.458;9.644;2022-11-23T19:12:55;0.90;;;0.10;;
38935;SDS011;25541;47.458;9.644;2022-11-23T19:15:21;3.47;;;0.25;;
38935;SDS011;25541;47.458;9.644;2022-11-23T19:17:46;3.80;;;0.20;;
38935;SDS011;25541;47.458;9.644;2022-11-23T19:20:13;1.13;;;0.20;;
38935;SDS011;25541;47.458;9.644;2022-11-23T19:22:39;0.93;;;0.10;;
38935;SDS011;25541;47.458;9.644;2022-11-23T19:25:05;1.27;;;0.20;;
38935;SDS011;25541;47.458;9.644;2022-11-23T19:27:34;1.75;;;0.13;;
38935;SDS011;25541;47.458;9.644;2022-11-23T19:30:01;1.15;;;0.10;;
38935;SDS011;25541;47.458;9.644;2022-11-23T19:32:32;1.48;;;0.20;;
38935;SDS011;25541;47.458;9.644;2022-11-23T19:34:59;1.00;;;0.13;;
38935;SDS011;25541;47.458;9.644;2022-11-23T19:37:24;2.65;;;0.30;;
38935;SDS011;25541;47.458;9.644;2022-11-23T19:39:50;1.10;;;0.10;;
38935;SDS011;25541;47.458;9.644;2022-11-23T19:42:16;2.30;;;0.10;;
38935;SDS011;25541;47.458;9.644;2022-11-23T19:44:41;1.98;;;0.20;;
38935;SDS011;25541;47.458;9.644;2022-11-23T19:47:07;1.20;;;0.10;;
38935;SDS011;25541;47.458;9.644;2022-11-23T19:49:33;1.27;;;0.10;;
38935;SDS011;25541;47.458;9.644;2022-11-23T19:51:58;3.20;;;0.10;;
38935;SDS011;25541;47.458;9.644;2022-11-23T19:54:25;3.33;;;0.10;;
38935;SDS011;25541;47.458;9.644;2022-11-23T19:56:51;0.70;;;0.10;;
38935;SDS011;25541;47.458;9.644;2022-11-23T19:59:17;1.15;;;0.10;;
38935;SDS011;25541;47.458;9.644;2022-11-23T20:01:43;4.00;;;0.10;;
38935;SDS011;25541;47.458;9.644;2022-11-23T20:04:08;0.98;;;0.00;;
38935;SDS011;25541;47.458;9.644;2022-11-23T20:06:36;0.50;;;0.00;;
38935;SDS011;25541;47.458;9.644;2022-11-23T20:09:04;1.45;;;0.10;;
38935;SDS011;25541;47.458;9.644;2022-11-23T20:11:32;0.70;;;0.10;;
38935;SDS011;25541;47.458;9.644;2022-11-23T20:13:58;1.88;;;0.10;;
38935;SDS011;25541;47.458;9.644;2022-11-23T20:16:25;0.73;;;0.10;;
38935;SDS011;25541;47.458;9.644;2022-11-23T20:19:02;1.50;;;0.10;;
38935;SDS011;25541;47.458;9.644;2022-11-23T20:21:30;1.08;;;0.00;;
38935;SDS011;25541;47.458;9.644;2022-11-23T20:23:58;1.27;;;0.00;;
38935;SDS011;25541;47.458;9.644;2022-11-23T20:26:25;0.40;;;0.00;;
38935;SDS011;25541;47.458;9.644;2022-11-23T20:28:51;0.40;;;0.00;;
38935;SDS011;25541;47.458;9.644;2022-11-23T20:31:22;0.68;;;0.00;;
38935;SDS011;25541;47.458;9.644;2022-11-23T20:33:49;0.08;;;0.00;;
38935;SDS011;25541;47.458;9.644;2022-11-23T20:36:16;0.30;;;0.00;;
38935;SDS011;25541;47.458;9.644;2022-11-23T20:38:43;0.30;;;0.00;;
38935;SDS011;25541;47.458;9.644;2022-11-23T20:41:13;0.50;;;0.00;;
38935;SDS011;25541;47.458;9.644;2022-11-23T20:43:42;1.05;;;0.00;;
38935;SDS011;25541;47.458;9.644;2022-11-23T20:46:09;0.57;;;0.00;;
38935;SDS011;25541;47.458;9.644;2022-11-23T20:48:35;1.55;;;0.10;;
38935;SDS011;25541;47.458;9.644;2022-11-23T20:51:02;0.47;;;0.00;;
38935;SDS011;25541;47.458;9.644;2022-11-23T20:53:29;1.52;;;0.00;;
38935;SDS011;25541;47.458;9.644;2022-11-23T20:56:04;1.05;;;0.00;;
38935;SDS011;25541;47.458;9.644;2022-11-23T20:58:32;0.65;;;0.00;;
38935;SDS011;25541;47.458;9.644;2022-11-23T21:01:09;0.43;;;0.00;;
38935;SDS011;25541;47.458;9.644;2022-11-23T21:03:40;1.30;;;0.10;;
38935;SDS011;25541;47.458;9.644;2022-11-23T21:06:07;1.35;;;0.10;;
38935;SDS011;25541;47.458;9.644;2022-11-23T21:08:41;0.52;;;0.00;;
38935;SDS011;25541;47.458;9.644;2022-11-23T21:11:10;0.60;;;0.05;;
38935;SDS011;25541;47.458;9.644;2022-11-23T21:14:15;3.70;;;0.10;;
38935;SDS011;25541;47.458;9.644;2022-11-23T21:16:47;1.25;;;0.00;;
38935;SDS011;25541;47.458;9.644;2022-11-23T21:19:19;1.10;;;0.10;;
38935;SDS011;25541;47.458;9.644;2022-11-23T21:21:49;0.65;;;0.00;;
38935;SDS011;25541;47.458;9.644;2022-11-23T21:24:16;2.40;;;0.00;;
38935;SDS011;25541;47.458;9.644;2022-11-23T21:26:42;1.90;;;0.10;;
38935;SDS011;25541;47.458;9.644;2022-11-23T21:29:08;1.77;;;0.10;;
38935;SDS011;25541;47.458;9.644;2022-11-23T21:31:39;2.03;;;0.10;;
38935;SDS011;25541;47.458;9.644;2022-11-23T21:34:06;1.17;;;0.00;;
38935;SDS011;25541;47.458;9.644;2022-11-23T21:36:37;0.80;;;0.00;;
38935;SDS011;25541;47.458;9.644;2022-11-23T21:39:04;2.17;;;0.10;;